Tiempo atmosférico en la estación meteorológica de Las Palmas de Gran Canaria, San Cristobal, Las Palmas (55 m.)



Fecha
DESCASC
Temp. máxima en grados centígrados (hora)
DESCASC
Temp. mínima en grados centígrados (hora)
DESCASC
Temp. media en grados centígrados
DESCASC
Racha de viento máxima en m/sg (hora)
DESCASC
Velocidad máxima media en intervalos de 10 minutos(hora)
DESCASC
Precipitaciones diarias en mm
DESCASC
Precipitaciones de 00:00 a 06:00 en mm
DESCASC
Precipitaciones de 06:00 a 12:00 en mm
DESCASC
Precipitaciones de 12:00 a 18:00 en mm
DESCASC
Precipitaciones de 18:00 a 24:00 en mm
DESCASC
25-01-2020 20.5 (15:10) 15.6 (05:20) 18.1 10.83 (15:20) 7.22 (14:50) 0 0 0 0 0
24-01-2020 -- (--) -- (--) -- -- (--) -- (--) -- -- -- 0 0
23-01-2020 21.1 (12:10) 14.7 (04:00) 17.9 7.22 (11:30) 3.89 (11:20) 0 0 0 0 0
22-01-2020 -- (--) -- (--) -- -- (--) -- (--) -- -- -- 0.1 0
21-01-2020 19.2 (13:50) 14.4 (00:00) 16.8 10.28 (01:50) 6.39 (11:20) 0.3 0 0 0 0.3
20-01-2020 -- (--) -- (--) -- -- (--) -- (--) -- -- -- 0 0.5
19-01-2020 23.5 (10:40) 16.3 (00:00) 19.9 9.17 (23:59) 5 (23:59) 0 0 0 0 0
18-01-2020 -- (--) -- (--) -- -- (--) -- (--) -- -- -- 0 0
17-01-2020 -- (--) -- (--) -- -- (--) -- (--) -- -- -- -- --
16-01-2020 24.7 (16:00) 15.6 (00:00) 20.2 6.67 (14:00) 3.89 (13:00) 0 0 0 0 0
15-01-2020 22.6 (11:10) 15.6 (00:00) 19.1 10.28 (14:10) 7.22 (11:50) 0 0 0 0 0
14-01-2020 22.5 (13:50) 15.5 (00:00) 19 14.72 (14:40) 10.83 (14:30) 0 0 0 0 0
13-01-2020 22.6 (11:20) 16.1 (00:00) 19.4 14.72 (16:20) 11.11 (16:10) 0 0 0 0 0
12-01-2020 23 (13:50) 16.4 (00:00) 19.7 8.61 (06:30) 5 (06:30) 0 0 0 0 0
11-01-2020 19.9 (13:10) 15.9 (00:00) 17.9 10 (15:20) 6.11 (03:30) 0 0 0 0 0
10-01-2020 21 (13:10) 15.9 (00:00) 18.4 11.39 (10:30) 6.39 (11:00) 0.4 0 0.1 0 0.3
09-01-2020 21.2 (12:50) 16.8 (00:00) 19 10.28 (18:10) 5.83 (14:30) 0 0 0 0 0
08-01-2020 22.6 (13:30) 16.3 (00:00) 19.4 15.83 (23:10) 5.83 (07:30) 0 0 0 0 0
07-01-2020 21.7 (14:50) 15.4 (00:00) 18.6 12.78 (01:00) 7.22 (08:10) 0.2 0.2 0 0 0
06-01-2020 20.6 (11:10) 16.4 (00:00) 18.5 13.06 (05:40) 6.94 (21:30) 0 0 0 0 0
05-01-2020 24.4 (11:10) 16.3 (00:00) 20.3 6.39 (23:20) 3.61 (06:30) 0 0 0 0 0
04-01-2020 24.7 (12:20) 16.4 (00:00) 20.6 5.83 (00:40) 3.33 (14:30) 0 0 0 0 0
03-01-2020 21.7 (12:30) 16.5 (00:00) 19.1 13.61 (05:20) 8.33 (12:40) 0 0 0 0 0
02-01-2020 21.1 (12:20) 15.8 (00:00) 18.5 13.33 (11:10) 8.89 (06:50) 0 0 0 0 0
01-01-2020 21.1 (10:10) 16.1 (00:00) 18.6 14.72 (11:40) 11.11 (11:10) 0 0 0 0 0
31-12-2019 22.9 (14:40) 16.6 (00:00) 19.8 9.44 (13:20) 6.94 (11:00) 0 0 0 0 0
30-12-2019 27.3 (14:40) 17.1 (00:00) 22.2 8.89 (11:30) 6.11 (11:30) 0 0 0 0 0
29-12-2019 25 (13:50) 17.3 (00:00) 21.1 8.61 (13:00) 6.11 (13:10) 0 0 0 0 0
28-12-2019 24.4 (14:20) 17.4 (00:00) 20.9 11.11 (11:20) 8.06 (10:20) 0 0 0 0 0

Gráficas

Temp. máximas Temp. mínimas Temp. medias Precipitaciones Rachas de viento máximas Velocidades máximas media en intervalos de 10 minutos

Datos horarios

Fecha y hora oficial Temperatura (ºC) Velocidad del viento (km/h) Dirección del viento Racha (km/h) Dirección de racha Precipitación (mm) Presión (hPa) Tendencia (hPa) Humedad (%)
2020-01-26 23:00:00 16.4 3 Noroeste 12 Norte 0 -- -- 67
2020-01-26 22:00:00 16.6 4 Noroeste 12 Noroeste 0 -- -- 67
2020-01-26 21:00:00 16.9 6 Norte 16 Nordeste 0 -- -- 65
2020-01-26 20:00:00 17.1 11 Norte 17 Norte 0 -- -- 64
2020-01-26 19:00:00 17.2 7 Norte 17 Nordeste 0 -- -- 65
2020-01-26 18:00:00 17.4 8 Norte 19 Nordeste 0 -- -- 64
2020-01-26 17:00:00 16.7 10 Norte 20 Nordeste 0 -- -- 58
2020-01-26 16:00:00 18.6 9 Nordeste 20 Nordeste 0 -- -- 59
2020-01-26 15:00:00 19.1 7 Nordeste 17 Nordeste 0 -- -- 58
2020-01-26 14:00:00 20.2 6 Nordeste 13 Nordeste 0 -- -- 58
2020-01-26 13:00:00 18.9 8 Nordeste 15 Nordeste 0 -- -- 60
2020-01-26 12:00:00 19.3 9 Nordeste 16 Nordeste 0 -- -- 62
2020-01-26 11:00:00 18.8 4 Norte 14 Nordeste 0 -- -- 61
2020-01-26 10:00:00 18.6 3 Norte 12 Oeste 0 -- -- 62
2020-01-26 09:00:00 17.3 8 Oeste 16 Noroeste 0 -- -- 64
2020-01-26 08:00:00 16 10 Noroeste 16 Noroeste 0 -- -- 68
2020-01-26 07:00:00 15.9 12 Oeste 18 Oeste 0.1 -- -- 68
2020-01-26 06:00:00 15.7 13 Oeste 20 Oeste 0 -- -- 67
2020-01-26 05:00:00 15.8 13 Oeste 17 Oeste 0 -- -- 65
2020-01-26 04:00:00 16 13 Oeste 19 Oeste 0 -- -- 65
2020-01-26 03:00:00 15.8 12 Oeste 20 Oeste 0 -- -- 65
2020-01-26 02:00:00 16.2 15 Oeste 19 Oeste 0 -- -- 63
2020-01-26 01:00:00 16.1 14 Oeste 19 Oeste 0 -- -- 63
2020-01-26 00:00:00 16 10 Oeste 19 Oeste 0 -- -- 63
2020-01-25 23:00:00 16.3 11 Oeste 20 Noroeste 0 -- -- 63
2020-01-25 22:00:00 17.4 15 Noroeste 24 Noroeste 0 -- -- 62
2020-01-25 21:00:00 17.4 12 Noroeste 25 Oeste 0 -- -- 63
2020-01-25 20:00:00 17.3 7 Noroeste 27 Noroeste 0 -- -- 65
2020-01-25 19:00:00 16.8 13 Noroeste 28 Noroeste 0 -- -- 61
2020-01-25 18:00:00 17.5 16 Noroeste 33 Noroeste 0 -- -- 63
2020-01-25 17:00:00 19.5 19 Noroeste 37 Noroeste 0 -- -- 58
2020-01-25 16:00:00 17.9 23 Norte 39 Noroeste 0 -- -- 62
2020-01-25 15:00:00 18.3 18 Noroeste 36 Noroeste 0 -- -- 62
2020-01-25 14:00:00 19.1 17 Noroeste 35 Noroeste 0 -- -- 60
2020-01-25 13:00:00 19.1 19 Noroeste 36 Noroeste 0 -- -- 60
2020-01-25 12:00:00 18.1 16 Noroeste 33 Noroeste 0 -- -- 60
2020-01-25 11:00:00 18.4 14 Noroeste 28 Noroeste 0 -- -- 61
2020-01-25 10:00:00 17.7 13 Noroeste 26 Noroeste 0 -- -- 62
2020-01-25 09:00:00 17.9 6 Noroeste 19 Oeste 0 -- -- 64
2020-01-25 08:00:00 16.4 10 Oeste 20 Noroeste 0 -- -- 67
2020-01-25 07:00:00 16.3 8 Noroeste 20 Noroeste 0 -- -- 65
2020-01-25 06:00:00 16.1 8 Oeste 20 Oeste 0 -- -- 65
2020-01-25 05:00:00 15.8 9 Oeste 19 Noroeste 0 -- -- 65
2020-01-25 04:00:00 16 9 Oeste 21 Noroeste 0 -- -- 65
2020-01-25 03:00:00 16 5 Oeste 18 Oeste 0 -- -- 65
2020-01-25 02:00:00 16 8 Oeste 18 Oeste 0 -- -- 65
2020-01-25 01:00:00 16.4 11 Oeste 21 Noroeste 0 -- -- 65
2020-01-25 00:00:00 16.4 10 Oeste 24 Noroeste 0 -- -- 65
2020-01-24 23:00:00 16.4 11 Oeste 21 Oeste 0 -- -- 64
2020-01-24 22:00:00 17.6 4 Oeste 19 Oeste 0 -- -- 60
2020-01-24 21:00:00 16.5 6 Oeste 14 Oeste 0 -- -- 63
2020-01-24 20:00:00 17.2 4 Oeste 17 Oeste 0 -- -- 63
2020-01-24 19:00:00 17.4 6 Noroeste 24 Noroeste 0 -- -- 63
2020-01-24 18:00:00 18.1 11 Noroeste 23 Noroeste 0 -- -- 62
2020-01-24 17:00:00 19.3 5 Noroeste 21 Sur 0 -- -- 54
2020-01-24 16:00:00 19.6 12 Noroeste 24 Noroeste 0 -- -- 49
2020-01-24 15:00:00 19.8 15 Sur 24 Sur 0 -- -- 57
2020-01-24 14:00:00 18.7 13 Nordeste 20 Norte 0 -- -- 56
2020-01-24 13:00:00 18.5 10 Nordeste 15 Nordeste 0 -- -- 52
2020-01-24 12:00:00 19.2 9 Nordeste -- -- -- -- -- 51
2020-01-24 11:00:00 -- -- -- -- -- -- -- -- --
2020-01-24 10:00:00 22.4 2 Este 7 Oeste 0 -- -- 43
2020-01-24 09:00:00 17.1 6 Oeste 11 Oeste 0 -- -- 53
2020-01-24 08:00:00 -- -- -- -- -- -- -- -- --
2020-01-24 07:00:00 -- -- -- -- -- -- -- -- --
2020-01-24 06:00:00 -- -- -- -- -- -- -- -- --
2020-01-24 05:00:00 -- -- -- -- -- -- -- -- --
2020-01-24 04:00:00 -- -- -- -- -- -- -- -- --
2020-01-24 03:00:00 -- -- -- -- -- -- -- -- --
2020-01-24 02:00:00 -- -- -- -- -- -- -- -- --
2020-01-24 01:00:00 15.8 10 Oeste 14 Oeste 0 -- -- 64
2020-01-24 00:00:00 15.8 10 Oeste 15 Oeste 0 -- -- 63
2020-01-23 23:00:00 17.3 9 Oeste 15 Oeste 0 -- -- 61
2020-01-23 22:00:00 16.2 7 Oeste 11 Oeste 0 -- -- 63
2020-01-23 21:00:00 16.5 6 Sudoeste 8 Sudoeste 0 -- -- 64
2020-01-23 20:00:00 16.4 0 Calma 4 Sur 0 -- -- 65
2020-01-23 19:00:00 17 0 Calma 7 Este 0 -- -- 63
2020-01-23 18:00:00 17.6 3 Este 8 Este 0 -- -- 62
2020-01-23 17:00:00 17.9 4 Este 9 Nordeste 0 -- -- 62
2020-01-23 16:00:00 17.6 6 Este 13 Nordeste 0 -- -- 62
2020-01-23 15:00:00 18.1 4 Norte 18 Noroeste 0 -- -- 59
2020-01-23 14:00:00 16.2 9 Noroeste 22 Norte 0 -- -- 58
2020-01-23 13:00:00 18.1 8 Noroeste 20 Noroeste 0 -- -- 58
2020-01-23 12:00:00 18.2 12 Noroeste 26 Noroeste 0 -- -- 59
2020-01-23 11:00:00 17.2 12 Norte 23 Noroeste 0 -- -- 60
2020-01-23 10:00:00 18 4 Noroeste 10 Noroeste 0 -- -- 48
2020-01-23 09:00:00 17.9 3 Oeste 10 Oeste 0 -- -- 47
2020-01-23 08:00:00 16.2 9 Oeste 13 Oeste 0 -- -- 49
2020-01-23 07:00:00 15.7 6 Oeste 14 Oeste 0 -- -- 51
2020-01-23 06:00:00 15.5 6 Sudoeste 9 Sudoeste 0 -- -- 52
2020-01-23 05:00:00 15.3 0 Calma 4 Noroeste 0 -- -- 53
2020-01-23 04:00:00 14.9 0 Calma 6 Oeste 0 -- -- 57
2020-01-23 03:00:00 16.1 5 Oeste 13 Oeste 0 -- -- 51
2020-01-23 02:00:00 15.2 9 Oeste 12 Oeste 0 -- -- 52
2020-01-23 01:00:00 15.6 7 Sudoeste 11 Sur 0 -- -- 55
2020-01-23 00:00:00 15.8 7 Sudoeste 10 Sudoeste 0 -- -- 59
2020-01-22 23:00:00 15.5 5 Sudoeste 9 Sudoeste 0 -- -- 62
2020-01-22 22:00:00 15.6 4 Sudoeste 13 Oeste 0 -- -- 60
2020-01-22 21:00:00 15.5 10 Sudoeste 14 Oeste 0 -- -- 63
2020-01-22 20:00:00 16.3 5 Oeste 15 Noroeste 0 -- -- 63
2020-01-22 19:00:00 16.5 9 Noroeste 13 Noroeste 0 -- -- 62
2020-01-22 18:00:00 17.1 4 Sudeste 12 Sudeste 0 -- -- 60
2020-01-22 17:00:00 17.1 8 Sur 11 Sudeste 0 -- -- 63
2020-01-22 16:00:00 17.1 4 Sur 9 Sudeste 0 -- -- 62
2020-01-22 15:00:00 17.2 4 Sudeste 13 Noroeste 0.1 -- -- 60
2020-01-22 14:00:00 16.6 9 Noroeste 24 Noroeste 0 -- -- 57
2020-01-22 13:00:00 17.4 10 Noroeste 24 Noroeste 0 -- -- 54
2020-01-22 12:00:00 16.9 15 Norte 22 Norte 0 -- -- 53
2020-01-22 11:00:00 20.2 5 Nordeste 14 Nordeste 0 -- -- 45
2020-01-22 10:00:00 18.1 6 Sudoeste 15 Sudoeste 0 -- -- 48
2020-01-22 09:00:00 15.9 6 Sudoeste 24 Sudoeste 0 -- -- 54
2020-01-22 08:00:00 -- 13 Oeste -- -- -- -- -- --
2020-01-22 07:00:00 -- -- -- -- -- -- -- -- --
2020-01-22 06:00:00 -- -- -- -- -- -- -- -- --
2020-01-22 05:00:00 -- -- -- -- -- -- -- -- --
2020-01-22 04:00:00 -- -- -- -- -- -- -- -- --
2020-01-22 03:00:00 14.6 17 Oeste 23 Oeste 0 -- -- 62
2020-01-22 02:00:00 14.7 13 Oeste 20 Oeste 0 -- -- 62
2020-01-22 01:00:00 14.5 14 Oeste 19 Oeste 0 -- -- 63
2020-01-22 00:00:00 14.5 11 Oeste 18 Oeste 0 -- -- 63
2020-01-21 23:00:00 14.7 9 Oeste 19 Oeste 0 -- -- 64
2020-01-21 22:00:00 14.8 12 Oeste 21 Oeste 0 -- -- 64
2020-01-21 21:00:00 14.6 10 Oeste 19 Oeste 0.3 -- -- 65
2020-01-21 20:00:00 15.1 6 Oeste 23 Noroeste 0 -- -- 64
2020-01-21 19:00:00 15.1 12 Noroeste 26 Norte 0 -- -- 63
2020-01-21 18:00:00 15.6 17 Noroeste 37 Norte 0 -- -- 57
2020-01-21 17:00:00 16.3 15 Noroeste 31 Noroeste 0 -- -- 56
2020-01-21 16:00:00 16.5 19 Noroeste 34 Noroeste 0 -- -- 55
2020-01-21 15:00:00 16.6 16 Noroeste 32 Noroeste 0 -- -- 51
2020-01-21 14:00:00 16.9 13 Oeste 35 Noroeste 0 -- -- 53
2020-01-21 13:00:00 16.6 15 Noroeste 31 Noroeste 0 -- -- 51
2020-01-21 12:00:00 16.3 16 Noroeste 33 Norte 0 -- -- 54
2020-01-21 11:00:00 16 18 Norte 33 Norte 0 -- -- 57
2020-01-21 10:00:00 16.3 15 Noroeste 29 Noroeste 0 -- -- 55
2020-01-21 09:00:00 16 14 Norte 33 Noroeste 0 -- -- 54
2020-01-21 08:00:00 15.9 19 Noroeste 31 Noroeste 0 -- -- 55
2020-01-21 07:00:00 15.8 18 Noroeste 30 Oeste 0 -- -- 58
2020-01-21 06:00:00 15.8 11 Noroeste 27 Noroeste 0 -- -- 58
2020-01-21 05:00:00 15.4 13 Noroeste 29 Noroeste 0 -- -- 62
2020-01-21 04:00:00 15.6 17 Noroeste 35 Noroeste 0 -- -- 58
2020-01-21 03:00:00 16 16 Noroeste 31 Noroeste 0 -- -- 53
2020-01-21 02:00:00 15.8 19 Noroeste 37 Noroeste 0 -- -- 55
2020-01-21 01:00:00 15.8 15 Noroeste 33 Noroeste 0 -- -- 59
2020-01-21 00:00:00 14.8 18 Noroeste 36 Oeste 0.5 -- -- 73
2020-01-20 23:00:00 14.8 15 Oeste 47 Noroeste 0 -- -- 71
2020-01-20 22:00:00 16.4 19 Norte 35 Noroeste 0 -- -- 62
2020-01-20 21:00:00 16.6 18 Noroeste 40 Norte 0 -- -- 59
2020-01-20 20:00:00 16.8 18 Noroeste 35 Norte 0 -- -- 54
2020-01-20 19:00:00 16.9 16 Norte 37 Norte 0 -- -- 57
2020-01-20 18:00:00 16.9 17 Norte 38 Norte 0 -- -- 59
2020-01-20 17:00:00 18.3 22 Noroeste 36 Norte 0 -- -- 58
2020-01-20 16:00:00 17 23 Norte 40 Norte 0 -- -- 60
2020-01-20 15:00:00 17.9 17 Noroeste 38 Noroeste 0 -- -- 56
2020-01-20 14:00:00 17.6 23 Noroeste 39 Noroeste 0 -- -- 59
2020-01-20 13:00:00 17.8 22 Noroeste 37 Noroeste 0 -- -- 59
2020-01-20 12:00:00 18.1 23 Noroeste -- -- -- -- -- 65
2020-01-20 11:00:00 16 20 Noroeste 40 Noroeste 0 -- -- 70
2020-01-20 10:00:00 16 20 Norte 37 Norte 0 -- -- 68
2020-01-20 09:00:00 16.1 17 Noroeste -- -- -- -- -- 66
2020-01-20 08:00:00 -- 16 Noroeste -- -- -- -- -- --
2020-01-20 07:00:00 -- -- -- -- -- -- -- -- --
2020-01-20 06:00:00 -- -- -- -- -- -- -- -- --
2020-01-20 05:00:00 -- -- -- -- -- -- -- -- --
2020-01-20 04:00:00 -- -- -- -- -- -- -- -- --
2020-01-20 03:00:00 -- -- -- -- -- -- -- -- --
2020-01-20 02:00:00 -- -- -- -- -- -- -- -- --
2020-01-20 01:00:00 17.6 17 Norte 31 Norte 0 -- -- 79
2020-01-20 00:00:00 16.3 18 Norte 33 Norte 0 -- -- 86
2020-01-19 23:00:00 17.6 17 Norte 25 Norte 0 -- -- 79
2020-01-19 22:00:00 17.8 8 Noroeste 21 Noroeste 0 -- -- 76
2020-01-19 21:00:00 17.6 9 Norte 24 Norte 0 -- -- 76
2020-01-19 20:00:00 17.7 14 Norte 23 Nordeste 0 -- -- 79
2020-01-19 19:00:00 18.7 10 Norte 19 Norte 0 -- -- 76
2020-01-19 18:00:00 18 10 Norte 17 Norte 0 -- -- 75
2020-01-19 17:00:00 18.6 8 Norte 19 Nordeste 0 -- -- 70
2020-01-19 16:00:00 18.5 11 Norte 22 Norte 0 -- -- 73
2020-01-19 15:00:00 20.7 4 Norte 18 Norte 0 -- -- 65
2020-01-19 14:00:00 18.7 11 Nordeste 23 Nordeste 0 -- -- 70
2020-01-19 13:00:00 19.4 7 Nordeste 17 Nordeste 0 -- -- 66
2020-01-19 12:00:00 21.9 3 Nordeste 12 Nordeste 0 -- -- 62
2020-01-19 11:00:00 19.9 5 Nordeste 10 Nordeste 0 -- -- 63
2020-01-19 10:00:00 19.8 3 Norte 6 Noroeste 0 -- -- 69
2020-01-19 09:00:00 18.4 0 Calma 9 Noroeste 0 -- -- 76
2020-01-19 08:00:00 17 4 Noroeste 7 Noroeste 0 -- -- 76
2020-01-19 07:00:00 16.8 0 Calma 8 Noroeste 0 -- -- 68
2020-01-19 06:00:00 17.2 5 Oeste 8 Oeste 0 -- -- 67
2020-01-19 05:00:00 17.3 5 Noroeste 9 Noroeste 0 -- -- 63
2020-01-19 04:00:00 17.6 5 Oeste 6 Oeste 0 -- -- 60
2020-01-19 03:00:00 17.6 3 Sudoeste 9 Sudoeste 0 -- -- 60
2020-01-19 02:00:00 17.6 0 Calma 8 Oeste 0 -- -- 60
2020-01-19 01:00:00 18 5 Sudoeste 10 Sudoeste 0 -- -- 59
2020-01-19 00:00:00 17.8 3 Oeste 10 Oeste 0 -- -- 61
2020-01-18 23:00:00 17.8 7 Oeste 13 Noroeste 0 -- -- 65
2020-01-18 22:00:00 18 7 Noroeste 16 Noroeste 0 -- -- 63
2020-01-18 21:00:00 18 8 Oeste 12 Oeste 0 -- -- 53
2020-01-18 20:00:00 17.2 0 Calma -- -- 0 -- -- 52
2020-01-18 19:00:00 17.6 0 Calma 11 Sur 0 -- -- 57
2020-01-18 18:00:00 18.9 7 Sudeste 11 Sudeste 0 -- -- 54
2020-01-18 17:00:00 22.5 5 Sudeste 16 Sudeste 0 -- -- 48
2020-01-18 16:00:00 21.9 3 Sudeste 16 Sudeste 0 -- -- 49
2020-01-18 15:00:00 23.4 6 Este 20 Sudeste 0 -- -- 50
2020-01-18 14:00:00 20.5 17 Sudeste 25 Sudeste 0 -- -- 57
2020-01-18 13:00:00 20.6 20 Sudeste 26 Sudeste 0 -- -- 59
2020-01-18 12:00:00 21.2 17 Sudeste 31 Sudeste 0 -- -- 57
2020-01-18 11:00:00 20.5 23 Sudeste 31 Sudeste 0 -- -- 48
2020-01-18 10:00:00 -- 20 Sur 27 Sudeste 0 -- -- --
2020-01-18 09:00:00 19 15 Sur -- -- -- -- -- 48
2020-01-18 08:00:00 -- -- -- -- -- -- -- -- --
2020-01-18 07:00:00 -- -- -- -- -- -- -- -- --
2020-01-18 06:00:00 -- -- -- -- -- -- -- -- --
2020-01-18 05:00:00 -- -- -- -- -- -- -- -- --
2020-01-18 04:00:00 -- -- -- -- -- -- -- -- --
2020-01-18 03:00:00 16.1 3 Sudoeste 6 Sudoeste 0 -- -- 75
2020-01-18 02:00:00 16.4 0 Calma 6 Noroeste 0 -- -- 73
2020-01-18 01:00:00 16.7 4 Noroeste 9 Noroeste 0 -- -- 70
2020-01-18 00:00:00 16.7 7 Noroeste 14 Noroeste 0 -- -- 67
2020-01-17 23:00:00 17 8 Noroeste -- -- -- -- -- 66
2020-01-17 22:00:00 17 8 Oeste 12 Norte 0 -- -- 62
2020-01-17 21:00:00 17.1 0 Calma 7 Oeste 0 -- -- 60
2020-01-17 20:00:00 17.1 3 Sur -- -- 0 -- -- 62
2020-01-17 19:00:00 17.2 6 Sudeste -- -- -- -- -- 63
2020-01-17 18:00:00 17.9 13 Sudeste 22 Sudeste 0 -- -- 60
2020-01-17 17:00:00 18.8 16 Sudeste -- -- -- -- -- 57
2020-01-17 16:00:00 19.7 17 Sudeste 29 Sudeste 0 -- -- 56
2020-01-17 15:00:00 19.7 22 Sudeste 27 Sudeste 0 -- -- 57
2020-01-17 14:00:00 19.9 22 Sudeste 33 Sudeste 0 -- -- 55
2020-01-17 13:00:00 19.6 22 Sudeste -- -- -- -- -- 54
2020-01-17 12:00:00 -- 22 Sudeste -- -- 0 -- -- --
2020-01-17 11:00:00 19.6 8 Sudeste 28 Sudeste 0 -- -- 52
2020-01-17 10:00:00 18.5 17 Sudeste 24 Sudeste 0 -- -- 53
2020-01-17 09:00:00 -- -- -- -- -- -- -- -- --
2020-01-17 08:00:00 -- -- -- -- -- -- -- -- --
2020-01-17 07:00:00 -- -- -- -- -- -- -- -- --
2020-01-17 06:00:00 -- -- -- -- -- -- -- -- --
2020-01-17 05:00:00 -- -- -- -- -- -- -- -- --
2020-01-17 04:00:00 16.4 2 Nordeste 8 Norte 0 -- -- 60
2020-01-17 03:00:00 16.7 0 Calma 15 Noroeste 0 -- -- 57
2020-01-17 02:00:00 17 8 Oeste 16 Noroeste 0 -- -- 57
2020-01-17 01:00:00 16.9 9 Oeste 12 Noroeste 0 -- -- 51
2020-01-17 00:00:00 17.1 2 Noroeste 6 Noroeste 0 -- -- 54
2020-01-16 23:00:00 16.3 0 Calma 10 Sur 0 -- -- 57
2020-01-16 22:00:00 17 6 Sur 8 Sur 0 -- -- 58
2020-01-16 21:00:00 17.2 6 Sur 11 Sur 0 -- -- 57
2020-01-16 20:00:00 18.1 5 Sur 8 Sur 0 -- -- 57
2020-01-16 19:00:00 17.7 6 Sur 12 Sur 0 -- -- 58
2020-01-16 18:00:00 19.9 9 Sudeste 12 Sudeste 0 -- -- 53
2020-01-16 17:00:00 21.7 9 Sudeste 17 Sudeste 0 -- -- 47
2020-01-16 16:00:00 22.4 7 Sudeste 22 Sudeste 0 -- -- 47
2020-01-16 15:00:00 22.3 9 Este 23 Sudeste 0 -- -- 49
2020-01-16 14:00:00 22.4 10 Sudeste 24 Sudeste 0 -- -- 49
2020-01-16 13:00:00 22.5 14 Sudeste 21 Sudeste 0 -- -- 53
2020-01-16 12:00:00 22.4 8 Sudeste 16 Sudeste 0 -- -- 53
2020-01-16 11:00:00 22.1 10 Sudeste 14 Sudeste 0 -- -- 55
2020-01-16 10:00:00 20.2 8 Sudeste 11 Sur 0 -- -- 58
2020-01-16 09:00:00 18.7 6 Sur 10 Sudoeste 0 -- -- 62
2020-01-16 08:00:00 16.6 6 Sudoeste 10 Sur 0 -- -- 65
2020-01-16 07:00:00 16 0 Calma 3 Oeste 0 -- -- 65
2020-01-16 06:00:00 16.5 3 Sudoeste 8 Oeste 0 -- -- 62
2020-01-16 05:00:00 16.3 4 Oeste 14 Oeste 0 -- -- 59
2020-01-16 04:00:00 16.5 7 Sudoeste 14 Sur 0 -- -- 63
2020-01-16 03:00:00 16.5 5 Sur 10 Sudoeste 0 -- -- 60
2020-01-16 02:00:00 16.3 6 Sudoeste 9 Sudoeste 0 -- -- 58
2020-01-16 01:00:00 17.6 4 Sudoeste 6 Sudoeste 0 -- -- 44
2020-01-16 00:00:00 16.2 0 Calma 10 Sudeste 0 -- -- 40
2020-01-15 23:00:00 17 9 Sur 16 Sur 0 -- -- 48
2020-01-15 22:00:00 17 13 Sur 19 Sur 0 -- -- 53
2020-01-15 21:00:00 17.2 11 Sur 17 Sur 0 -- -- 48
2020-01-15 20:00:00 17.1 5 Sur 17 Sur 0 -- -- 53
2020-01-15 19:00:00 17.7 15 Sudeste 23 Sudeste 0 -- -- 57
2020-01-15 18:00:00 18.1 12 Sudeste 26 Sudeste 0 -- -- 54
2020-01-15 17:00:00 19.5 21 Sudeste 32 Sur 0 -- -- 52
2020-01-15 16:00:00 20.5 19 Sudeste 31 Sudeste 0 -- -- 53
2020-01-15 15:00:00 21.9 18 Sudeste 37 Sudeste 0 -- -- 51
2020-01-15 14:00:00 21 18 Sudeste 36 Sudeste 0 -- -- 49
2020-01-15 13:00:00 21.5 17 Sudeste 35 Sudeste 0 -- -- 52
2020-01-15 12:00:00 20.5 19 Sudeste 35 Sudeste 0 -- -- 53
2020-01-15 11:00:00 20.8 16 Sudeste 26 Sudeste 0 -- -- 53
2020-01-15 10:00:00 19.5 11 Sur 15 Sur 0 -- -- 56
2020-01-15 09:00:00 18.2 8 Sur 18 Sur 0 -- -- 58
2020-01-15 08:00:00 18 12 Sur 19 Sur 0 -- -- 62
2020-01-15 07:00:00 16.6 10 Sur 14 Sur 0 -- -- 59
2020-01-15 06:00:00 16.5 8 Sur 15 Sur 0 -- -- 57
2020-01-15 05:00:00 16.7 8 Sur 14 Sur 0 -- -- 56
2020-01-15 04:00:00 16 5 Sur 14 Sur 0 -- -- 48
2020-01-15 03:00:00 16.6 8 Sur 12 Sur 0 -- -- 51
2020-01-15 02:00:00 15.9 3 Sudoeste 10 Sudoeste 0 -- -- 49
2020-01-15 01:00:00 16 3 Sudoeste 9 Sudoeste 0 -- -- 47
2020-01-15 00:00:00 17.2 4 Oeste 13 Sur 0 -- -- 39
2020-01-14 23:00:00 17.2 10 Sur 21 Sudeste 0 -- -- 45
2020-01-14 22:00:00 17.1 15 Sur 18 Sudeste 0 -- -- 48
2020-01-14 21:00:00 16.8 7 Sur 18 Sur 0 -- -- 52
2020-01-14 20:00:00 18.2 13 Sur 31 Sur 0 -- -- 53
2020-01-14 19:00:00 17.6 24 Sur 37 Sudeste 0 -- -- 54
2020-01-14 18:00:00 18.5 33 Sur 45 Sudeste 0 -- -- 49
2020-01-14 17:00:00 19.3 37 Sudeste 47 Sudeste 0 -- -- 49
2020-01-14 16:00:00 19.7 35 Sudeste 51 Sudeste 0 -- -- 48
2020-01-14 15:00:00 20.6 39 Sudeste 53 Sudeste 0 -- -- 51
2020-01-14 14:00:00 20.4 36 Sudeste 49 Sudeste 0 -- -- 48
2020-01-14 13:00:00 20.5 36 Sudeste 49 Sudeste 0 -- -- 42
2020-01-14 12:00:00 21.3 38 Sur 46 Sudeste 0 -- -- 43
2020-01-14 11:00:00 19.9 35 Sudeste 44 Sudeste 0 -- -- 48
2020-01-14 10:00:00 19.3 29 Sur 36 Sudeste 0 -- -- 50
2020-01-14 09:00:00 18.2 24 Sur 33 Sur 0 -- -- 58
2020-01-14 08:00:00 18.4 18 Sur 27 Sur 0 -- -- 61
2020-01-14 07:00:00 17 14 Sur 22 Sur 0 -- -- 68
2020-01-14 06:00:00 17.1 13 Sur 20 Sur 0 -- -- 68
2020-01-14 05:00:00 17 12 Sur 19 Sur 0 -- -- 65
2020-01-14 04:00:00 17.4 10 Sur 19 Sur 0 -- -- 63
2020-01-14 03:00:00 17.1 13 Sur 20 Sur 0 -- -- 70
2020-01-14 02:00:00 17.1 13 Sur 21 Sur 0 -- -- 70
2020-01-14 01:00:00 17 12 Sur 18 Sur 0 -- -- 63
2020-01-14 00:00:00 17.4 7 Sudeste 15 Sur 0 -- -- 46
2020-01-13 23:00:00 17.5 3 Sudoeste 6 Sudoeste 0 -- -- 43
2020-01-13 22:00:00 17.6 0 Calma 9 Sudeste 0 -- -- 45
2020-01-13 21:00:00 19.8 3 Sudeste 22 Sur 0 -- -- 35
2020-01-13 20:00:00 19.7 14 Sur 27 Sur 0 -- -- 34
2020-01-13 19:00:00 19.6 26 Sur 43 Sur 0 -- -- 37
2020-01-13 18:00:00 18.9 37 Sudeste 47 Sudeste 0 -- -- 53
2020-01-13 17:00:00 19.4 34 Sudeste 53 Sudeste 0 -- -- 57
2020-01-13 16:00:00 19.7 38 Sudeste 52 Sudeste 0 -- -- 56
2020-01-13 15:00:00 20 33 Sudeste 49 Sudeste 0 -- -- 57
2020-01-13 14:00:00 20.6 31 Sudeste 52 Sudeste 0 -- -- 56
2020-01-13 13:00:00 20.7 33 Sudeste 43 Sur 0 -- -- 56
2020-01-13 12:00:00 19.8 29 Sudeste 36 Sudeste 0 -- -- 62
2020-01-13 11:00:00 20.4 17 Sudeste 23 Sudeste 0 -- -- 61
2020-01-13 10:00:00 19.5 13 Sudeste 18 Sudeste 0 -- -- 63
2020-01-13 09:00:00 18.4 9 Sur 18 Sur 0 -- -- 65
2020-01-13 08:00:00 17 8 Sur 13 Sur 0 -- -- 69
2020-01-13 07:00:00 16.9 8 Sur 12 Sur 0 -- -- 68
2020-01-13 06:00:00 16.7 5 Sur 11 Oeste 0 -- -- 70
2020-01-13 05:00:00 16.6 6 Oeste 9 Oeste 0 -- -- 70
2020-01-13 04:00:00 16.5 6 Noroeste 12 Nordeste 0 -- -- 69
2020-01-13 03:00:00 17 8 Este 17 Nordeste 0 -- -- 68
2020-01-13 02:00:00 16.8 4 Nordeste 19 Nordeste 0 -- -- 64
2020-01-13 01:00:00 17.2 12 Nordeste 21 Nordeste 0 -- -- 67
2020-01-13 00:00:00 16.9 4 Nordeste 23 Nordeste 0 -- -- 62
2020-01-12 23:00:00 16.9 3 Norte 13 Nordeste 0 -- -- 62
2020-01-12 22:00:00 16.8 4 Noroeste 8 Noroeste 0 -- -- 60
2020-01-12 21:00:00 16.7 3 Oeste 6 Oeste 0 -- -- 59
2020-01-12 20:00:00 17 0 Calma 9 Nordeste 0 -- -- 59
2020-01-12 19:00:00 17.3 0 Calma 7 Sudeste 0 -- -- 57
2020-01-12 18:00:00 18.4 2 Sudeste 12 Sudeste 0 -- -- 53
2020-01-12 17:00:00 20.7 3 Este 15 Sudeste 0 -- -- 54
2020-01-12 16:00:00 20.6 7 Este 20 Sudeste 0 -- -- 54
2020-01-12 15:00:00 20.6 4 Sudeste 26 Este 0 -- -- 56
2020-01-12 14:00:00 21.3 9 Sudeste 22 Este 0 -- -- 54
2020-01-12 13:00:00 19.8 13 Este 28 Este 0 -- -- 59
2020-01-12 12:00:00 18.6 17 Nordeste 23 Este 0 -- -- 59
2020-01-12 11:00:00 18.5 12 Nordeste 29 Nordeste 0 -- -- 57
2020-01-12 10:00:00 18.1 13 Nordeste 24 Nordeste 0 -- -- 60
2020-01-12 09:00:00 17.8 11 Nordeste 22 Nordeste 0 -- -- 58
2020-01-12 08:00:00 17.5 12 Norte 23 Norte 0 -- -- 59
2020-01-12 07:00:00 17.4 15 Nordeste 31 Nordeste 0 -- -- 58
2020-01-12 06:00:00 17.3 14 Norte 25 Norte 0 -- -- 63
2020-01-12 05:00:00 17.3 12 Norte 24 Norte 0 -- -- 65
2020-01-12 04:00:00 17.2 8 Norte 26 Nordeste 0 -- -- 67
2020-01-12 03:00:00 17.4 11 Noroeste 19 Norte 0 -- -- 64
2020-01-12 02:00:00 16.8 17 Norte 29 Noroeste 0 -- -- 69
2020-01-12 01:00:00 17.6 11 Norte 24 Norte 0 -- -- 64
2020-01-12 00:00:00 17.4 15 Norte 27 Noroeste 0 -- -- 65
2020-01-11 23:00:00 17.5 13 Norte 28 Nordeste 0 -- -- 65
2020-01-11 22:00:00 17.1 14 Norte 28 Oeste 0 -- -- 69
2020-01-11 21:00:00 16.6 12 Noroeste 30 Noroeste 0 -- -- 68
2020-01-11 20:00:00 17 14 Norte 30 Norte 0 -- -- 68
2020-01-11 19:00:00 17.6 12 Noroeste 29 Norte 0 -- -- 59
2020-01-11 18:00:00 17.4 12 Noroeste 36 Nordeste 0 -- -- 64
2020-01-11 17:00:00 17.1 14 Norte 31 Norte 0 -- -- 69
2020-01-11 16:00:00 17.1 16 Noroeste 36 Noroeste 0 -- -- 69
2020-01-11 15:00:00 17.4 18 Noroeste 32 Norte 0 -- -- 67
2020-01-11 14:00:00 18 15 Norte 33 Norte 0 -- -- 64
2020-01-11 13:00:00 18.3 14 Norte 22 Norte 0 -- -- 62
2020-01-11 12:00:00 18.2 9 Noroeste 22 Nordeste 0 -- -- 62
2020-01-11 11:00:00 18.2 15 Norte 26 Norte 0 -- -- 59
2020-01-11 10:00:00 18.7 9 Nordeste 23 Noroeste 0 -- -- 67
2020-01-11 09:00:00 17.7 12 Noroeste 20 Noroeste 0 -- -- 61
2020-01-11 08:00:00 17.3 13 Noroeste 26 Norte 0 -- -- 62
2020-01-11 07:00:00 17.4 18 Norte 31 Norte 0 -- -- 60
2020-01-11 06:00:00 17.2 15 Norte 30 Noroeste 0 -- -- 62
2020-01-11 05:00:00 17.4 14 Norte 25 Norte 0 -- -- 63
2020-01-11 04:00:00 17.7 15 Norte 35 Nordeste 0 -- -- 64
2020-01-11 03:00:00 17.7 13 Norte 25 Norte 0 -- -- 70
2020-01-11 02:00:00 17.6 13 Norte 22 Norte 0 -- -- 74
2020-01-11 01:00:00 17.6 13 Norte 24 Norte 0 -- -- 76
2020-01-11 00:00:00 16.8 15 Noroeste 33 Nordeste 0.3 -- -- 85
2020-01-10 23:00:00 18 11 Norte 22 Norte 0 -- -- 70
2020-01-10 22:00:00 18.4 13 Norte 25 Norte 0 -- -- 69
2020-01-10 21:00:00 18.2 14 Norte 30 Norte 0 -- -- 69
2020-01-10 20:00:00 18.3 12 Norte 21 Nordeste 0 -- -- 72
2020-01-10 19:00:00 19.1 9 Norte 22 Norte 0 -- -- 59
2020-01-10 18:00:00 18.6 13 Norte 30 Norte 0 -- -- 67
2020-01-10 17:00:00 18.6 15 Norte 29 Nordeste 0 -- -- 67
2020-01-10 16:00:00 18.1 14 Norte 34 Nordeste 0 -- -- 70
2020-01-10 15:00:00 18.7 11 Norte 30 Norte 0 -- -- 65
2020-01-10 14:00:00 18.8 15 Norte 30 Nordeste 0 -- -- 66
2020-01-10 13:00:00 18.9 14 Norte 34 Norte 0 -- -- 68
2020-01-10 12:00:00 18.8 12 Nordeste 30 Norte 0 -- -- 68
2020-01-10 11:00:00 19.6 23 Norte 41 Nordeste 0 -- -- 71
2020-01-10 10:00:00 16.9 16 Nordeste 41 Nordeste 0.1 -- -- 84
2020-01-10 09:00:00 18.2 14 Norte 26 Norte 0 -- -- 81
2020-01-10 08:00:00 17.2 17 Noroeste 29 Noroeste 0 -- -- 80
2020-01-10 07:00:00 16.8 13 Norte 29 Norte 0 -- -- 82
2020-01-10 06:00:00 18 13 Norte 24 Norte 0 -- -- 70
2020-01-10 05:00:00 18 14 Norte 26 Norte 0 -- -- 69
2020-01-10 04:00:00 18 10 Norte 33 Norte 0 -- -- 68
2020-01-10 03:00:00 17.8 14 Norte 35 Norte 0 -- -- 69
2020-01-10 02:00:00 17.6 12 Norte 21 Noroeste 0 -- -- 70
2020-01-10 01:00:00 18 9 Norte 24 Norte 0 -- -- 64
2020-01-10 00:00:00 18 12 Norte 30 Norte 0 -- -- 63
2020-01-09 23:00:00 17.8 16 Noroeste 32 Norte 0 -- -- 60
2020-01-09 22:00:00 17.9 14 Noroeste 32 Norte 0 -- -- 62
2020-01-09 21:00:00 18 19 Norte 32 Norte 0 -- -- 62
2020-01-09 20:00:00 18.1 18 Norte 32 Norte 0 -- -- 62
2020-01-09 19:00:00 18.2 19 Norte 37 Norte 0 -- -- 62
2020-01-09 18:00:00 19.2 18 Norte 33 Norte 0 -- -- 63
2020-01-09 17:00:00 18.4 14 Norte 27 Norte 0 -- -- 62
2020-01-09 16:00:00 18.3 13 Norte 30 Nordeste 0 -- -- 62
2020-01-09 15:00:00 18.5 17 Norte 33 Norte 0 -- -- 60
2020-01-09 14:00:00 19.1 17 Norte 35 Norte 0 -- -- 58
2020-01-09 13:00:00 20 17 Norte 34 Norte 0 -- -- 57
2020-01-09 12:00:00 18.5 18 Norte 32 Norte 0 -- -- 56
2020-01-09 11:00:00 18.4 15 Norte 29 Norte 0 -- -- 58
2020-01-09 10:00:00 18.1 11 Norte 24 Norte 0 -- -- 63
2020-01-09 09:00:00 17.6 12 Norte 25 Norte 0 -- -- 63
2020-01-09 08:00:00 17.6 14 Norte 23 Noroeste 0 -- -- 65
2020-01-09 07:00:00 17.4 12 Norte 25 Norte 0 -- -- 65
2020-01-09 06:00:00 17.4 12 Noroeste 21 Noroeste 0 -- -- 65
2020-01-09 05:00:00 17.1 13 Norte 26 Norte 0 -- -- 67
2020-01-09 04:00:00 17.4 11 Nordeste 25 Norte 0 -- -- 68
2020-01-09 03:00:00 17.5 10 Norte 22 Nordeste 0 -- -- 62
2020-01-09 02:00:00 17.5 12 Nordeste 26 Norte 0 -- -- 64
2020-01-09 01:00:00 17.5 13 Norte 27 Norte 0 -- -- 65
2020-01-09 00:00:00 17.6 15 Norte 57 Norte 0 -- -- 64
2020-01-08 23:00:00 17.7 12 Norte 28 Noroeste 0 -- -- 65
2020-01-08 22:00:00 17.6 12 Norte 24 Norte 0 -- -- 64
2020-01-08 21:00:00 17.8 12 Norte 27 Norte 0 -- -- 63
2020-01-08 20:00:00 19.1 13 Norte 26 Norte 0 -- -- 65
2020-01-08 19:00:00 18.8 16 Norte 28 Nordeste 0 -- -- 64
2020-01-08 18:00:00 17.9 15 Norte 28 Nordeste 0 -- -- 65
2020-01-08 17:00:00 18.3 13 Norte 24 Norte 0 -- -- 63
2020-01-08 16:00:00 18.3 12 Nordeste 22 Nordeste 0 -- -- 62
2020-01-08 15:00:00 20 12 Nordeste 24 Nordeste 0 -- -- 58
2020-01-08 14:00:00 19.7 14 Nordeste 23 Norte 0 -- -- 58
2020-01-08 13:00:00 20.2 13 Nordeste 23 Norte 0 -- -- 59
2020-01-08 12:00:00 19.6 15 Nordeste 26 Nordeste 0 -- -- 59
2020-01-08 11:00:00 18.7 19 Nordeste 30 Nordeste 0 -- -- 60
2020-01-08 10:00:00 18.3 16 Nordeste 29 Nordeste 0 -- -- 65
2020-01-08 09:00:00 17.9 14 Nordeste 26 Nordeste 0 -- -- 67
2020-01-08 08:00:00 17.3 14 Nordeste 32 Nordeste 0 -- -- 67
2020-01-08 07:00:00 17.3 13 Nordeste 29 Nordeste 0 -- -- 68
2020-01-08 06:00:00 17.3 15 Nordeste 30 Nordeste 0 -- -- 67
2020-01-08 05:00:00 17.3 10 Nordeste 27 Nordeste 0 -- -- 67
2020-01-08 04:00:00 17.4 17 Nordeste 32 Nordeste 0 -- -- 68
2020-01-08 03:00:00 17.4 15 Nordeste 27 Nordeste 0 -- -- 69
2020-01-08 02:00:00 17.3 11 Nordeste 25 Nordeste 0 -- -- 68
2020-01-08 01:00:00 17.5 13 Nordeste 26 Norte 0 -- -- 68
2020-01-08 00:00:00 17.5 10 Norte 24 Nordeste 0 -- -- 67
2020-01-07 23:00:00 18.6 15 Norte 30 Nordeste 0 -- -- 66
2020-01-07 22:00:00 17.7 14 Nordeste 34 Nordeste 0 -- -- 68
2020-01-07 21:00:00 17.8 16 Norte 31 Nordeste 0 -- -- 70
2020-01-07 20:00:00 17.9 15 Norte 29 Nordeste 0 -- -- 69
2020-01-07 19:00:00 18 11 Nordeste 25 Nordeste 0 -- -- 70
2020-01-07 18:00:00 18.1 10 Nordeste 24 Nordeste 0 -- -- 69
2020-01-07 17:00:00 18.9 12 Nordeste 19 Nordeste 0 -- -- 63
2020-01-07 16:00:00 19.7 10 Nordeste 18 Nordeste 0 -- -- 59
2020-01-07 15:00:00 19.4 9 Nordeste 21 Nordeste 0 -- -- 59
2020-01-07 14:00:00 19.5 9 Nordeste 21 Nordeste 0 -- -- 60
2020-01-07 13:00:00 18.4 12 Nordeste 23 Este 0 -- -- 64
2020-01-07 12:00:00 18 17 Nordeste 27 Nordeste 0 -- -- 64
2020-01-07 11:00:00 18.8 18 Nordeste 27 Nordeste 0 -- -- 64
2020-01-07 10:00:00 18.3 17 Nordeste 31 Este 0 -- -- 65
2020-01-07 09:00:00 17.4 23 Este 34 Este 0 -- -- 65
2020-01-07 08:00:00 17 21 Nordeste 35 Nordeste 0 -- -- 67
2020-01-07 07:00:00 16.8 18 Nordeste 30 Nordeste 0 -- -- 68
2020-01-07 06:00:00 17.1 19 Nordeste 31 Nordeste 0 -- -- 68
2020-01-07 05:00:00 17.1 15 Nordeste 26 Nordeste 0 -- -- 68
2020-01-07 04:00:00 17.3 10 Norte 28 Norte 0 -- -- 69
2020-01-07 03:00:00 17.3 18 Norte 29 Nordeste 0 -- -- 67
2020-01-07 02:00:00 16.9 14 Norte 38 Nordeste 0 -- -- 73
2020-01-07 01:00:00 15.6 23 Nordeste 46 Nordeste 0.2 -- -- 79
2020-01-07 00:00:00 17.5 17 Norte 33 Norte 0 -- -- 65
2020-01-06 23:00:00 17.5 17 Norte 40 Norte 0 -- -- 68
2020-01-06 22:00:00 17.6 22 Norte 43 Norte 0 -- -- 64
2020-01-06 21:00:00 17.4 22 Norte 39 Norte 0 -- -- 68
2020-01-06 20:00:00 17.3 22 Norte 37 Norte 0 -- -- 69
2020-01-06 19:00:00 17.6 21 Noroeste 37 Noroeste 0 -- -- 65
2020-01-06 18:00:00 17.7 23 Norte 37 Noroeste 0 -- -- 65
2020-01-06 17:00:00 18.1 20 Noroeste 33 Norte 0 -- -- 62
2020-01-06 16:00:00 18 21 Norte 33 Norte 0 -- -- 64
2020-01-06 15:00:00 18.3 17 Norte 32 Norte 0 -- -- 62
2020-01-06 14:00:00 19.6 16 Norte 32 Norte 0 -- -- 59
2020-01-06 13:00:00 18.1 17 Norte 33 Nordeste 0 -- -- 62
2020-01-06 12:00:00 18.2 18 Norte 32 Norte 0 -- -- 60
2020-01-06 11:00:00 19.8 15 Norte 33 Norte 0 -- -- 56
2020-01-06 10:00:00 18.1 18 Norte 30 Norte 0 -- -- 62
2020-01-06 09:00:00 17.8 16 Norte 29 Norte 0 -- -- 59